TAF and METAR

Decoding for American and Canadian METARs and TAFs is not fully implemented.

Could not understand the following METAR

CYHK 030300Z AUTO 15007KT 9SM OVC016 M01/M02 A3012 RMK SLP206

TAF for Gjoa Haven Airport

TAF CYHK 022339Z 0300/0312 18010KT P6SM -SN OVC012 TEMPO 0300/0312 21/2SM -SN BR OVC008 BECMG 0300/0302 13012KT RMK FCST BASED ON AUTO OBS. NXT FCST BY 030600Z
Report created 3. jun 01:39

between 3. jun 02:00 - 3. jun 14:00

wind 10 knots from S (180°)